Adam Asnyk — 9HA4195 — position and weather

sailwx.info

Track history (hours):
 
Tides and Currents Weather Stations Pressure Air Temp Water Temp Dewpoint Dewpoint Depression Visibility Wind Speed Wind Dir Waves Ship Positions

Adam Asnyk

Last reported at 2017-Nov-15 22:53 UTC. Time now 2017-Nov-21 06:18 UTC.
Position N 32°02' E 120°26'.

Length 200 m; draft 11 m.

Type: Ship. MMSI: 249319000.

Date/timePositionNaut miles runAvg speedWind from/ knotsBaromVisibWave heightAir tempDewpointWater temp
2017-Nov-15 22:53N 32°02' E 120°26'4 9.4
2017-Nov-15 22:26N 32°02' E 120°31'15 9.6
2017-Nov-15 20:49N 31°60' E 120°49'2 7.7
2017-Nov-15 20:30N 31°58' E 120°51'510.6
2017-Nov-15 20:00N 31°53' E 120°53'510.5
2017-Nov-15 19:30N 31°48' E 120°55'5 9.6
2017-Nov-15 19:00N 31°47' E 121°01'510.6
2017-Nov-15 18:30N 31°44' E 121°06'611.3
2017-Nov-15 18:00N 31°41' E 121°11'611.6
2017-Nov-15 17:30N 31°37' E 121°17'611.8
2017-Nov-15 17:00N 31°32' E 121°21'611.4
2017-Nov-15 16:31N 31°29' E 121°27'5 9.7
2017-Nov-15 16:00N 31°25' E 121°30'3 7.0
2017-Nov-15 15:31N 31°24' E 121°34'4 8.3
2017-Nov-15 15:00N 31°22' E 121°38'5 9.9
2017-Nov-15 14:30N 31°19' E 121°43'510.3
2017-Nov-15 14:00N 31°17' E 121°49'510.0
2017-Nov-15 13:30N 31°16' E 121°55'611.3
2017-Nov-15 13:01N 31°15' E 122°01'612.4
2017-Nov-15 12:31N 31°13' E 122°08'811.2
2017-Nov-15 11:46N 31°08' E 122°16'311.4
2017-Nov-15 11:30N 31°06' E 122°19'510.2
2017-Nov-15 11:00N 31°07' E 122°25'4 7.1
2017-Nov-15 10:30N 31°07' E 122°29'9 0.8
2017-Nov-14 22:39N 31°14' E 122°35'0 0.1
2017-Nov-14 19:11N 31°14' E 122°35'0 0.0
2017-Nov-14 18:30N 31°14' E 122°35'0 0.0
2017-Nov-14 17:33N 31°14' E 122°35'0 0.0
2017-Nov-14 17:09N 31°14' E 122°35'0 0.0
2017-Nov-14 16:47N 31°14' E 122°35'0 0.0
2017-Nov-14 16:28N 31°14' E 122°35'0 0.1
2017-Nov-14 15:58N 31°14' E 122°35'0 0.1
2017-Nov-14 14:46N 31°14' E 122°35'0 0.0
2017-Nov-14 07:15N 31°14' E 122°35'0 0.0
2017-Nov-14 07:00N 31°14' E 122°35'0 0.1
2017-Nov-14 06:25N 31°14' E 122°35'0 0.0
2017-Nov-14 06:00N 31°14' E 122°35'0 0.0
2017-Nov-14 05:29N 31°14' E 122°35'0 0.0
2017-Nov-14 05:00N 31°14' E 122°35'0 0.0
2017-Nov-14 04:30N 31°14' E 122°35'0 0.0
2017-Nov-14 04:00N 31°14' E 122°35'0 0.0
2017-Nov-14 03:24N 31°14' E 122°35'0 0.1
2017-Nov-14 02:51N 31°14' E 122°35'0 0.0
2017-Nov-14 02:30N 31°14' E 122°35'0 0.2
2017-Nov-14 01:58N 31°14' E 122°35'0 0.1
2017-Nov-14 00:37N 31°14' E 122°35'0 0.0
2017-Nov-14 00:26N 31°14' E 122°35'0 0.0
2017-Nov-14 00:00N 31°14' E 122°35'0 0.1
2017-Nov-13 23:30N 31°14' E 122°35'0 0.0
2017-Nov-13 22:58N 31°14' E 122°35'0 0.0
2017-Nov-13 22:27N 31°14' E 122°35'0 0.0
2017-Nov-12 20:01N 31°14' E 122°35'0 0.0
2017-Nov-12 20:00N 31°14' E 122°35'0 0.1
2017-Nov-12 19:30N 31°14' E 122°35'0 0.1
2017-Nov-12 18:51N 31°14' E 122°35'0 0.0
2017-Nov-12 18:30N 31°14' E 122°35'0 0.0
2017-Nov-12 17:44N 31°14' E 122°35'0 0.1
2017-Nov-12 17:13N 31°14' E 122°35'0 0.1
2017-Nov-12 16:59N 31°14' E 122°35'0 0.0
2017-Nov-12 14:43N 31°14' E 122°35'52510.7
2017-Nov-10 13:33N 22°49' E 119°53'116.1
2017-Nov-10 13:30N 22°48' E 119°53'816.1
2017-Nov-10 13:00N 22°41' E 119°51'  
Track history (hours):
 
Tides and Currents Weather Stations Pressure Air Temp Water Temp Dewpoint Dewpoint Depression Visibility Wind Speed Wind Dir Waves Ship Positions

Adam Asnyk

Last reported at 2017-Nov-15 22:53 UTC. Time now 2017-Nov-21 06:18 UTC.
Position N 32°02' E 120°26'.

Length 200 m; draft 11 m.

Type: Ship. MMSI: 249319000.

Date/timePositionNaut miles runAvg speedWind from/ knotsBaromVisibWave heightAir tempDewpointWater temp
2017-Nov-15 22:53N 32°02' E 120°26'4 9.4
2017-Nov-15 22:26N 32°02' E 120°31'15 9.6
2017-Nov-15 20:49N 31°60' E 120°49'2 7.7
2017-Nov-15 20:30N 31°58' E 120°51'510.6
2017-Nov-15 20:00N 31°53' E 120°53'510.5
2017-Nov-15 19:30N 31°48' E 120°55'5 9.6
2017-Nov-15 19:00N 31°47' E 121°01'510.6
2017-Nov-15 18:30N 31°44' E 121°06'611.3
2017-Nov-15 18:00N 31°41' E 121°11'611.6
2017-Nov-15 17:30N 31°37' E 121°17'611.8
2017-Nov-15 17:00N 31°32' E 121°21'611.4
2017-Nov-15 16:31N 31°29' E 121°27'5 9.7
2017-Nov-15 16:00N 31°25' E 121°30'3 7.0
2017-Nov-15 15:31N 31°24' E 121°34'4 8.3
2017-Nov-15 15:00N 31°22' E 121°38'5 9.9
2017-Nov-15 14:30N 31°19' E 121°43'510.3
2017-Nov-15 14:00N 31°17' E 121°49'510.0
2017-Nov-15 13:30N 31°16' E 121°55'611.3
2017-Nov-15 13:01N 31°15' E 122°01'612.4
2017-Nov-15 12:31N 31°13' E 122°08'811.2
2017-Nov-15 11:46N 31°08' E 122°16'311.4
2017-Nov-15 11:30N 31°06' E 122°19'510.2
2017-Nov-15 11:00N 31°07' E 122°25'4 7.1
2017-Nov-15 10:30N 31°07' E 122°29'9 0.8
2017-Nov-14 22:39N 31°14' E 122°35'0 0.1
2017-Nov-14 19:11N 31°14' E 122°35'0 0.0
2017-Nov-14 18:30N 31°14' E 122°35'0 0.0
2017-Nov-14 17:33N 31°14' E 122°35'0 0.0
2017-Nov-14 17:09N 31°14' E 122°35'0 0.0
2017-Nov-14 16:47N 31°14' E 122°35'0 0.0
2017-Nov-14 16:28N 31°14' E 122°35'0 0.1
2017-Nov-14 15:58N 31°14' E 122°35'0 0.1
2017-Nov-14 14:46N 31°14' E 122°35'0 0.0
2017-Nov-14 07:15N 31°14' E 122°35'0 0.0
2017-Nov-14 07:00N 31°14' E 122°35'0 0.1
2017-Nov-14 06:25N 31°14' E 122°35'0 0.0
2017-Nov-14 06:00N 31°14' E 122°35'0 0.0
2017-Nov-14 05:29N 31°14' E 122°35'0 0.0
2017-Nov-14 05:00N 31°14' E 122°35'0 0.0
2017-Nov-14 04:30N 31°14' E 122°35'0 0.0
2017-Nov-14 04:00N 31°14' E 122°35'0 0.0
2017-Nov-14 03:24N 31°14' E 122°35'0 0.1
2017-Nov-14 02:51N 31°14' E 122°35'0 0.0
2017-Nov-14 02:30N 31°14' E 122°35'0 0.2
2017-Nov-14 01:58N 31°14' E 122°35'0 0.1
2017-Nov-14 00:37N 31°14' E 122°35'0 0.0
2017-Nov-14 00:26N 31°14' E 122°35'0 0.0
2017-Nov-14 00:00N 31°14' E 122°35'0 0.1
2017-Nov-13 23:30N 31°14' E 122°35'0 0.0
2017-Nov-13 22:58N 31°14' E 122°35'0 0.0
2017-Nov-13 22:27N 31°14' E 122°35'0 0.0
2017-Nov-12 20:01N 31°14' E 122°35'0 0.0
2017-Nov-12 20:00N 31°14' E 122°35'0 0.1
2017-Nov-12 19:30N 31°14' E 122°35'0 0.1
2017-Nov-12 18:51N 31°14' E 122°35'0 0.0
2017-Nov-12 18:30N 31°14' E 122°35'0 0.0
2017-Nov-12 17:44N 31°14' E 122°35'0 0.1
2017-Nov-12 17:13N 31°14' E 122°35'0 0.1
2017-Nov-12 16:59N 31°14' E 122°35'0 0.0
2017-Nov-12 14:43N 31°14' E 122°35'52510.7
2017-Nov-10 13:33N 22°49' E 119°53'116.1
2017-Nov-10 13:30N 22°48' E 119°53'816.1
2017-Nov-10 13:00N 22°41' E 119°51'  

Dump ship's entire track history